Time;durP1;ratioP1;P1;durP2;ratioP2;P2;SDS_P1;SDS_P2;PMS_P1;PMS_P2;Temp;Humidity;BMP_temperature;BMP_pressure;BME280_temperature;BME280_humidity;BME280_pressure;Samples;Min_cycle;Max_cycle;Signal;HPM_P1;HPM_P2
2023/12/16 00:00:35;;;;;;;;;;;;;;;-140.72;100.00;53803.38;5064574;28;19936;-76
2023/12/16 00:03:00;;;;;;;;;;;;;;;-140.72;100.00;53803.38;5028719;28;19963;-77
2023/12/16 00:05:25;;;;;;;;;;;;;;;-140.72;100.00;53793.22;5056198;28;19966;-77
2023/12/16 00:07:50;;;;;;;;;;;;;;;-140.72;100.00;53801.34;5046441;28;20019;-76
2023/12/16 00:10:16;;;;;;;;;;;;;;;-140.72;100.00;53791.19;5023426;28;19917;-76
2023/12/16 00:12:41;;;;;;;;;;;;;;;-140.72;100.00;53823.69;5037202;28;19957;-76
2023/12/16 00:15:09;;;;;;;;;;;;;;;-140.72;100.00;53805.41;5054411;28;19921;-76
2023/12/16 00:17:34;;;;;;;;;;;;;;;-140.72;100.00;53797.28;5048298;28;19917;-76
2023/12/16 00:19:59;;;;;;;;;;;;;;;-140.72;100.00;53831.78;5045468;28;19921;-76
2023/12/16 00:22:25;;;;;;;;;;;;;;;-140.72;100.00;53852.09;5050743;28;19925;-77
2023/12/16 00:24:50;;;;;;;;;;;;;;;-140.72;100.00;53886.59;5037440;28;19917;-77
2023/12/16 00:27:15;;;;;;;;;;;;;;;-140.72;100.00;53872.41;5048763;28;19928;-78
2023/12/16 00:29:41;;;;;;;;;;;;;;;-140.72;100.00;53898.78;5046357;28;19965;-76
2023/12/16 00:32:06;;;;;;;;;;;;;;;-140.72;100.00;53904.88;5036698;28;19921;-76
2023/12/16 00:34:33;;;;;;;;;;;;;;;-140.72;100.00;53943.44;5072266;28;20463;-76
2023/12/16 00:36:58;;;;;;;;;;;;;;;-140.72;100.00;53943.44;5046068;28;19916;-77
2023/12/16 00:39:23;;;;;;;;;;;;;;;-140.72;100.00;53961.72;5037315;28;19920;-76
2023/12/16 00:41:49;;;;;;;;;;;;;;;-140.72;100.00;53977.94;5036640;28;19928;-76
2023/12/16 00:44:14;;;;;;;;;;;;;;;-140.72;100.00;53961.72;5023038;28;19924;-76
2023/12/16 00:46:39;;;;;;;;;;;;;;;-140.72;100.00;53961.72;5066461;28;19917;-76
2023/12/16 00:49:04;;;;;;;;;;;;;;;-140.72;100.00;53953.59;5060738;28;19927;-76
2023/12/16 00:51:29;;;;;;;;;;;;;;;-140.72;100.00;53937.34;5061646;28;19917;-76
2023/12/16 00:53:55;;;;;;;;;;;;;;;-140.72;100.00;54034.78;5040845;28;20008;-77
2023/12/16 00:56:20;;;;;;;;;;;;;;;-140.72;100.00;54032.75;5041658;28;19921;-76
2023/12/16 00:58:45;;;;;;;;;;;;;;;-140.72;100.00;54063.22;5053256;28;19921;-76
2023/12/16 01:01:13;;;;;;;;;;;;;;;-140.72;100.00;54051.03;5040750;28;19921;-77
2023/12/16 01:03:40;;;;;;;;;;;;;;;-140.72;100.00;54083.50;5027818;28;19939;-76
2023/12/16 01:06:05;;;;;;;;;;;;;;;-140.72;100.00;54099.75;5019616;28;19973;-77
2023/12/16 01:08:31;;;;;;;;;;;;;;;-140.72;100.00;54176.88;5048781;28;19968;-77
2023/12/16 01:10:56;;;;;;;;;;;;;;;-140.72;100.00;54191.09;5020820;28;19917;-76
2023/12/16 01:13:21;;;;;;;;;;;;;;;-140.72;100.00;54168.75;5025823;28;19924;-76
2023/12/16 01:15:46;;;;;;;;;;;;;;;-140.72;100.00;54252.00;5020167;28;20382;-76
2023/12/16 01:18:12;;;;;;;;;;;;;;;-140.72;100.00;54245.91;5026043;28;19916;-76
2023/12/16 01:20:37;;;;;;;;;;;;;;;-140.72;100.00;54266.22;5036886;28;19927;-77
2023/12/16 01:23:02;;;;;;;;;;;;;;;-140.72;100.00;54312.91;5039695;28;19917;-77
2023/12/16 01:25:27;;;;;;;;;;;;;;;-140.72;100.00;54319.00;5022144;28;19917;-77
2023/12/16 01:30:56;;;;;;;;;;;;;;;-140.72;100.00;54396.13;5047211;28;19920;-76
2023/12/16 01:33:21;;;;;;;;;;;;;;;-140.72;100.00;54461.09;5023574;28;20305;-77
2023/12/16 01:35:47;;;;;;;;;;;;;;;-140.72;100.00;54428.63;5053619;28;20304;-76
2023/12/16 01:38:12;;;;;;;;;;;;;;;-140.72;100.00;54493.59;5039557;28;19917;-76
2023/12/16 01:40:37;;;;;;;;;;;;;;;-140.72;100.00;54509.81;5033969;28;20321;-76
2023/12/16 01:43:10;;;;;;;;;;;;;;;-140.72;100.00;54532.16;5020220;28;19917;-76
2023/12/16 01:45:35;;;;;;;;;;;;;;;-140.72;100.00;54532.16;5047262;28;20003;-76
2023/12/16 01:48:03;;;;;;;;;;;;;;;-140.72;100.00;54570.72;5018609;28;19921;-76
2023/12/16 01:50:28;;;;;;;;;;;;;;;-140.72;100.00;54550.44;5055102;28;19917;-76
2023/12/16 01:52:54;;;;;;;;;;;;;;;-140.72;100.00;54613.38;5043912;28;20037;-76
2023/12/16 01:55:19;;;;;;;;;;;;;;;-140.72;100.00;54615.41;5031541;28;19913;-76
2023/12/16 01:58:15;;;;;;;;;;;;;;;-140.72;100.00;54635.69;5022517;28;19925;-76
2023/12/16 02:00:41;;;;;;;;;;;;;;;-140.72;100.00;54623.53;5043097;28;19993;-76
2023/12/16 02:03:06;;;;;;;;;;;;;;;-140.72;100.00;54613.38;5044952;28;19947;-76
2023/12/16 02:05:38;;;;;;;;;;;;;;;-140.72;100.00;54649.91;5035442;28;20007;-76
2023/12/16 02:08:03;;;;;;;;;;;;;;;-140.72;100.00;54656.00;5034898;28;19924;-76
2023/12/16 02:10:28;;;;;;;;;;;;;;;-140.72;100.00;54680.38;5045763;28;20290;-76
2023/12/16 02:12:54;;;;;;;;;;;;;;;-140.72;100.00;54704.72;5047677;28;19917;-76
2023/12/16 02:15:19;;;;;;;;;;;;;;;-140.72;100.00;54696.59;5056068;28;19922;-76
2023/12/16 02:17:44;;;;;;;;;;;;;;;-140.72;100.00;54716.91;5034357;28;20231;-76
2023/12/16 02:20:10;;;;;;;;;;;;;;;-140.72;100.00;54723.00;5037185;28;19921;-75
2023/12/16 02:22:35;;;;;;;;;;;;;;;-140.72;100.00;54737.22;5029124;28;19924;-75
2023/12/16 02:25:00;;;;;;;;;;;;;;;-140.72;100.00;54759.53;5032339;28;19964;-75
2023/12/16 02:27:25;;;;;;;;;;;;;;;-140.72;100.00;54727.06;5042540;28;19990;-75
2023/12/16 02:29:50;;;;;;;;;;;;;;;-140.72;100.00;54763.59;5044375;28;19933;-75
2023/12/16 02:32:17;;;;;;;;;;;;;;;-140.72;100.00;54729.09;5027507;28;19917;-75
2023/12/16 02:34:42;;;;;;;;;;;;;;;-140.72;100.00;54767.66;5014674;28;19917;-75
2023/12/16 02:37:08;;;;;;;;;;;;;;;-140.72;100.00;54773.75;5017590;28;19983;-75
2023/12/16 02:39:34;;;;;;;;;;;;;;;-140.72;100.00;54771.72;5046303;28;20282;-76
2023/12/16 02:41:59;;;;;;;;;;;;;;;-140.72;100.00;54785.94;5034275;28;19951;-76
2023/12/16 02:44:24;;;;;;;;;;;;;;;-140.72;100.00;54759.53;5021275;28;20008;-76
2023/12/16 02:46:49;;;;;;;;;;;;;;;-140.72;100.00;54769.69;5032675;28;19917;-76
2023/12/16 02:49:15;;;;;;;;;;;;;;;-140.72;100.00;54794.06;5049169;28;19921;-76
2023/12/16 02:51:40;;;;;;;;;;;;;;;-140.72;100.00;54818.44;5032850;28;19929;-76
2023/12/16 02:54:05;;;;;;;;;;;;;;;-140.72;100.00;54798.13;5044460;28;19916;-76
2023/12/16 02:56:30;;;;;;;;;;;;;;;-140.72;100.00;54830.59;5016165;28;20067;-75
2023/12/16 02:58:55;;;;;;;;;;;;;;;-140.72;100.00;54867.16;5032375;28;20266;-76
2023/12/16 03:01:21;;;;;;;;;;;;;;;-140.72;100.00;54846.84;5039914;28;20011;-75
2023/12/16 03:03:46;;;;;;;;;;;;;;;-140.72;100.00;54877.31;5023682;28;19958;-76
2023/12/16 03:06:11;;;;;;;;;;;;;;;-140.72;100.00;54875.28;5048463;28;19940;-76
2023/12/16 03:08:57;;;;;;;;;;;;;;;-140.72;100.00;54873.25;5069754;28;20337;-76
2023/12/16 03:11:22;;;;;;;;;;;;;;;-140.72;100.00;54903.69;5018440;28;20015;-75
2023/12/16 03:13:47;;;;;;;;;;;;;;;-140.72;100.00;54956.50;5015200;28;19949;-75
2023/12/16 03:16:12;;;;;;;;;;;;;;;-140.72;100.00;54944.31;5035214;28;19916;-75
2023/12/16 03:18:38;;;;;;;;;;;;;;;-140.72;100.00;54970.72;5024433;28;20357;-76
2023/12/16 03:21:05;;;;;;;;;;;;;;;-140.72;100.00;54948.38;5033189;28;20339;-76
2023/12/16 03:23:30;;;;;;;;;;;;;;;-140.72;100.00;54993.03;5033050;28;20009;-76
2023/12/16 03:28:58;;;;;;;;;;;;;;;-140.72;100.00;54964.63;5062158;28;19931;-76
2023/12/16 03:31:23;;;;;;;;;;;;;;;-140.72;100.00;55033.66;5053749;28;20007;-76
2023/12/16 03:33:48;;;;;;;;;;;;;;;-140.72;100.00;55015.38;5066136;28;19916;-76
2023/12/16 03:36:14;;;;;;;;;;;;;;;-140.72;100.00;55007.25;5056396;28;20354;-76
2023/12/16 03:38:42;;;;;;;;;;;;;;;-140.72;100.00;55074.25;5044014;28;19917;-76
2023/12/16 03:41:07;;;;;;;;;;;;;;;-140.72;100.00;55080.34;5030374;28;19921;-76
2023/12/16 03:43:33;;;;;;;;;;;;;;;-140.72;100.00;55100.66;5031734;28;20275;-76
2023/12/16 03:45:58;;;;;;;;;;;;;;;-140.72;100.00;55196.09;5039362;28;19932;-76
2023/12/16 03:48:24;;;;;;;;;;;;;;;-140.72;100.00;55202.19;5018179;28;19917;-76
2023/12/16 03:50:49;;;;;;;;;;;;;;;-140.72;100.00;55232.66;5017966;28;19932;-76
2023/12/16 03:53:15;;;;;;;;;;;;;;;-140.72;100.00;55275.28;5053080;28;19924;-76
2023/12/16 03:55:40;;;;;;;;;;;;;;;-140.72;100.00;55265.13;5037746;28;20369;-76
2023/12/16 03:58:05;;;;;;;;;;;;;;;-140.72;100.00;55315.91;5057574;28;19921;-77
2023/12/16 04:00:30;;;;;;;;;;;;;;;-140.72;100.00;55356.50;5057462;28;20099;-76
2023/12/16 04:02:55;;;;;;;;;;;;;;;-140.72;100.00;55356.50;5058681;28;19948;-76
2023/12/16 04:05:21;;;;;;;;;;;;;;;-140.72;100.00;55425.56;5055117;28;19932;-76
2023/12/16 04:08:16;;;;;;;;;;;;;;;-140.72;100.00;55413.38;5024297;28;20274;-76
2023/12/16 04:10:41;;;;;;;;;;;;;;;-140.72;100.00;55462.09;5034724;28;19921;-76
2023/12/16 04:19:13;;;;;;;;;;;;;;;-140.72;100.00;55504.75;5051951;28;19920;-76
2023/12/16 04:21:38;;;;;;;;;;;;;;;-140.72;100.00;55571.75;5049195;28;20311;-76
2023/12/16 04:24:03;;;;;;;;;;;;;;;-140.72;100.00;55573.78;5050723;28;19917;-77
2023/12/16 04:26:28;;;;;;;;;;;;;;;-140.72;100.00;55557.56;5030380;28;19917;-76
2023/12/16 04:28:54;;;;;;;;;;;;;;;-140.72;100.00;55608.31;5021411;28;19917;-76
2023/12/16 04:31:19;;;;;;;;;;;;;;;-140.72;100.00;55644.88;5031232;28;19959;-76
2023/12/16 04:33:45;;;;;;;;;;;;;;;-140.72;100.00;55632.69;5068626;28;19944;-76
2023/12/16 04:36:16;;;;;;;;;;;;;;;-140.72;100.00;55681.44;5054771;28;19921;-76
2023/12/16 04:38:42;;;;;;;;;;;;;;;-140.72;100.00;55671.28;5044620;28;20302;-76
2023/12/16 04:41:10;;;;;;;;;;;;;;;-140.72;100.00;55720.00;5037913;28;19921;-76
2023/12/16 04:43:35;;;;;;;;;;;;;;;-140.72;100.00;55730.16;5020063;28;19956;-76
2023/12/16 04:46:01;;;;;;;;;;;;;;;-140.72;100.00;55742.34;5035722;28;19947;-76
2023/12/16 04:48:26;;;;;;;;;;;;;;;-140.72;100.00;55791.09;5035051;28;19940;-76
2023/12/16 04:50:51;;;;;;;;;;;;;;;-140.72;100.00;55789.06;5047503;28;19916;-76
2023/12/16 04:53:16;;;;;;;;;;;;;;;-140.72;100.00;55764.69;5033032;28;19928;-76
2023/12/16 04:55:42;;;;;;;;;;;;;;;-140.72;100.00;55813.44;5061745;28;20354;-77
2023/12/16 04:58:07;;;;;;;;;;;;;;;-140.72;100.00;55841.88;5044434;28;19917;-76
2023/12/16 05:00:32;;;;;;;;;;;;;;;-140.72;100.00;55821.56;5017265;28;20283;-76
2023/12/16 05:02:59;;;;;;;;;;;;;;;-140.72;100.00;55852.00;5038823;28;19920;-77
2023/12/16 05:05:24;;;;;;;;;;;;;;;-140.72;100.00;55829.69;5073494;28;19951;-76
2023/12/16 05:07:49;;;;;;;;;;;;;;;-140.72;100.00;55856.06;5033624;28;19924;-76
2023/12/16 05:10:14;;;;;;;;;;;;;;;-140.72;100.00;55882.47;5063848;28;19936;-76
2023/12/16 05:12:40;;;;;;;;;;;;;;;-140.72;100.00;55910.91;5063152;28;19908;-76
2023/12/16 05:15:06;;;;;;;;;;;;;;;-140.72;100.00;55874.34;5051091;28;20350;-77
2023/12/16 05:17:31;;;;;;;;;;;;;;;-140.72;100.00;55900.75;5027362;28;19928;-76
2023/12/16 05:19:56;;;;;;;;;;;;;;;-140.72;100.00;55939.34;5037254;28;19917;-75
2023/12/16 05:22:21;;;;;;;;;;;;;;;-140.72;100.00;55925.13;5035134;28;20000;-77
2023/12/16 05:24:48;;;;;;;;;;;;;;;-140.72;100.00;55882.47;5049023;28;20374;-76
2023/12/16 05:27:13;;;;;;;;;;;;;;;-140.72;100.00;55900.75;5040950;28;19959;-76
2023/12/16 05:29:38;;;;;;;;;;;;;;;-140.72;100.00;55908.88;5028114;28;19917;-77
2023/12/16 05:32:04;;;;;;;;;;;;;;;-140.72;100.00;55902.78;5043873;28;20478;-76
2023/12/16 05:34:30;;;;;;;;;;;;;;;-140.72;100.00;55941.38;5062476;28;19917;-76
2023/12/16 05:36:55;;;;;;;;;;;;;;;-140.72;100.00;55898.72;5038541;28;20020;-76
2023/12/16 05:39:20;;;;;;;;;;;;;;;-140.72;100.00;55923.09;5038399;28;19977;-76
2023/12/16 05:41:45;;;;;;;;;;;;;;;-140.72;100.00;55939.34;5037336;28;19952;-77
2023/12/16 05:44:11;;;;;;;;;;;;;;;-140.72;100.00;55904.81;5039338;28;19932;-76
2023/12/16 05:46:36;;;;;;;;;;;;;;;-140.72;100.00;55884.50;5039889;28;20396;-76
2023/12/16 05:49:01;;;;;;;;;;;;;;;-140.72;100.00;55880.44;5043524;28;19989;-79
2023/12/16 05:51:27;;;;;;;;;;;;;;;-140.72;100.00;55870.28;5044169;28;20374;-76
2023/12/16 05:53:52;;;;;;;;;;;;;;;-140.72;100.00;55843.88;5044329;28;20267;-76
2023/12/16 05:56:17;;;;;;;;;;;;;;;-140.72;100.00;55862.16;5037768;28;19940;-77
2023/12/16 05:58:42;;;;;;;;;;;;;;;-140.72;100.00;55852.00;5018391;28;20295;-77
2023/12/16 06:01:07;;;;;;;;;;;;;;;-140.72;100.00;55880.44;5032660;28;20314;-77
2023/12/16 06:03:33;;;;;;;;;;;;;;;-140.72;100.00;55868.25;5024449;28;19993;-78
2023/12/16 06:05:58;;;;;;;;;;;;;;;-140.72;100.00;55841.88;5041682;28;19928;-79
2023/12/16 06:08:23;;;;;;;;;;;;;;;-140.72;100.00;55870.28;5049409;28;19921;-80
2023/12/16 06:10:48;;;;;;;;;;;;;;;-140.72;100.00;55825.63;5046135;28;19920;-80
2023/12/16 06:13:13;;;;;;;;;;;;;;;-140.72;100.00;55845.94;5037396;28;19971;-77
2023/12/16 06:15:39;;;;;;;;;;;;;;;-140.72;100.00;55829.69;5051295;28;19916;-77
2023/12/16 06:18:06;;;;;;;;;;;;;;;-140.72;100.00;55795.16;5017918;28;19917;-76
2023/12/16 06:20:31;;;;;;;;;;;;;;;-140.72;100.00;55849.97;5052385;28;19924;-76
2023/12/16 06:22:56;;;;;;;;;;;;;;;-140.72;100.00;55860.13;5066896;28;19936;-77
2023/12/16 06:25:22;;;;;;;;;;;;;;;-140.72;100.00;55876.38;5034675;28;20400;-77
2023/12/16 06:27:47;;;;;;;;;;;;;;;-140.72;100.00;55919.03;5025262;28;19978;-78
2023/12/16 06:30:13;;;;;;;;;;;;;;;-140.72;100.00;55862.16;5035080;28;19942;-78
2023/12/16 06:32:38;;;;;;;;;;;;;;;-140.72;100.00;55876.38;5036094;28;19932;-77
2023/12/16 06:38:06;;;;;;;;;;;;;;;-140.72;100.00;55878.41;5042628;28;19983;-77
2023/12/16 06:40:32;;;;;;;;;;;;;;;-140.72;100.00;55872.31;5039055;28;20390;-77
2023/12/16 06:42:57;;;;;;;;;;;;;;;-140.72;100.00;55854.03;5034834;28;20295;-79
2023/12/16 06:45:22;;;;;;;;;;;;;;;-140.72;100.00;55886.53;5023387;28;20312;-77
2023/12/16 06:47:47;;;;;;;;;;;;;;;-140.72;100.00;55862.16;5032993;28;19916;-78
2023/12/16 06:50:13;;;;;;;;;;;;;;;-140.72;100.00;55868.25;5029796;28;19920;-77
2023/12/16 06:52:38;;;;;;;;;;;;;;;-140.72;100.00;55803.28;5032371;28;19920;-77
2023/12/16 06:55:03;;;;;;;;;;;;;;;-140.72;100.00;55827.66;5019609;28;20074;-78
2023/12/16 06:57:28;;;;;;;;;;;;;;;-140.72;100.00;55841.88;5054868;28;19973;-78
2023/12/16 07:00:28;;;;;;;;;;;;;;;-140.72;100.00;55835.78;5037927;28;19996;-78
2023/12/16 07:02:53;;;;;;;;;;;;;;;-140.72;100.00;55845.94;5044318;28;19928;-78
2023/12/16 07:05:18;;;;;;;;;;;;;;;-140.72;100.00;55845.94;5044521;28;20016;-77
2023/12/16 07:07:45;;;;;;;;;;;;;;;-140.72;100.00;55841.88;5049372;28;22618;-77
2023/12/16 07:10:11;;;;;;;;;;;;;;;-140.72;100.00;55904.81;5029576;28;19921;-77
2023/12/16 07:12:36;;;;;;;;;;;;;;;-140.72;100.00;55878.41;5028530;28;19936;-77
2023/12/16 07:15:01;;;;;;;;;;;;;;;-140.72;100.00;55902.78;5022680;28;19921;-78
2023/12/16 07:17:26;;;;;;;;;;;;;;;-140.72;100.00;55872.31;5031256;28;20027;-78
2023/12/16 07:19:52;;;;;;;;;;;;;;;-140.72;100.00;55878.41;5029299;28;19917;-77
2023/12/16 07:22:17;;;;;;;;;;;;;;;-140.72;100.00;55896.69;5034350;28;19982;-78
2023/12/16 07:24:42;;;;;;;;;;;;;;;-140.72;100.00;55870.28;5045221;28;19924;-76
2023/12/16 07:27:08;;;;;;;;;;;;;;;-140.72;100.00;55906.84;5042960;28;19948;-77
2023/12/16 07:29:36;;;;;;;;;;;;;;;-140.72;100.00;55906.84;5023558;28;20418;-77
2023/12/16 07:32:02;;;;;;;;;;;;;;;-140.72;100.00;55908.88;5043995;28;19932;-77
2023/12/16 07:34:28;;;;;;;;;;;;;;;-140.72;100.00;55959.66;5038802;28;19917;-77
2023/12/16 07:36:53;;;;;;;;;;;;;;;-140.72;100.00;55982.00;5044786;28;19920;-76
2023/12/16 07:39:18;;;;;;;;;;;;;;;-140.72;100.00;55904.81;5052397;28;19956;-82
2023/12/16 07:41:44;;;;;;;;;;;;;;;-140.72;100.00;55882.47;5034182;28;20361;-76
2023/12/16 07:44:09;;;;;;;;;;;;;;;-140.72;100.00;55898.72;5043025;28;19920;-76
2023/12/16 07:46:34;;;;;;;;;;;;;;;-140.72;100.00;55890.59;5031454;28;19917;-78
2023/12/16 07:48:59;;;;;;;;;;;;;;;-140.72;100.00;55904.81;5039083;28;19961;-77
2023/12/16 07:51:25;;;;;;;;;;;;;;;-140.72;100.00;55957.63;5049557;28;19924;-77
2023/12/16 07:53:51;;;;;;;;;;;;;;;-140.72;100.00;55927.16;5055500;28;19928;-77
2023/12/16 07:56:29;;;;;;;;;;;;;;;-140.72;100.00;55943.41;5053688;28;19924;-77
2023/12/16 07:58:54;;;;;;;;;;;;;;;-140.72;100.00;55967.78;5032989;28;19921;-76
2023/12/16 08:01:20;;;;;;;;;;;;;;;-140.72;100.00;55961.69;5045384;28;19927;-77
2023/12/16 08:03:46;;;;;;;;;;;;;;;-140.72;100.00;55957.63;5036751;28;19921;-77
2023/12/16 08:06:11;;;;;;;;;;;;;;;-140.72;100.00;55951.53;5038523;28;19921;-76
2023/12/16 08:08:40;;;;;;;;;;;;;;;-140.72;100.00;56020.59;5054920;28;19956;-77
2023/12/16 08:11:06;;;;;;;;;;;;;;;-140.72;100.00;55982.00;5043160;28;19944;-76
2023/12/16 08:13:31;;;;;;;;;;;;;;;-140.72;100.00;55953.56;5044800;28;19965;-77
2023/12/16 08:15:56;;;;;;;;;;;;;;;-140.72;100.00;56000.28;5051671;28;19967;-77
2023/12/16 08:18:21;;;;;;;;;;;;;;;-140.72;100.00;55947.47;5027301;28;19917;-77
2023/12/16 08:20:47;;;;;;;;;;;;;;;-140.72;100.00;55967.78;5046902;28;20024;-76
2023/12/16 08:23:12;;;;;;;;;;;;;;;-140.72;100.00;55986.06;5040993;28;20295;-76
2023/12/16 08:25:38;;;;;;;;;;;;;;;-140.72;100.00;55963.72;5042649;28;19962;-75
2023/12/16 08:28:04;;;;;;;;;;;;;;;-140.72;100.00;55949.50;5034848;28;19917;-76
2023/12/16 08:30:29;;;;;;;;;;;;;;;-140.72;100.00;55943.41;5021185;28;19964;-75
2023/12/16 08:32:54;;;;;;;;;;;;;;;-140.72;100.00;55925.13;5039585;28;19940;-76
2023/12/16 08:35:19;;;;;;;;;;;;;;;-140.72;100.00;55929.19;5041651;28;19917;-77
2023/12/16 08:37:45;;;;;;;;;;;;;;;-140.72;100.00;55941.38;5035853;28;19917;-76
2023/12/16 08:40:10;;;;;;;;;;;;;;;-140.72;100.00;55900.75;5045292;28;19935;-77
2023/12/16 08:42:36;;;;;;;;;;;;;;;-140.72;100.00;55910.91;5071162;28;19942;-77
2023/12/16 08:45:02;;;;;;;;;;;;;;;-140.72;100.00;55906.84;5051299;28;19992;-77
2023/12/16 08:47:47;;;;;;;;;;;;;;;-140.72;100.00;55882.47;5052249;28;20269;-77
2023/12/16 08:50:12;;;;;;;;;;;;;;;-140.72;100.00;55880.44;5040198;28;19970;-76
2023/12/16 08:53:12;;;;;;;;;;;;;;;-140.72;100.00;55854.03;5032855;28;19979;-76
2023/12/16 08:55:40;;;;;;;;;;;;;;;-140.72;100.00;55827.66;5051626;28;19988;-77
2023/12/16 08:58:05;;;;;;;;;;;;;;;-140.72;100.00;55856.06;5025805;28;19940;-76
2023/12/16 09:00:30;;;;;;;;;;;;;;;-140.72;100.00;55878.41;5037291;28;20370;-77
2023/12/16 09:02:56;;;;;;;;;;;;;;;-140.72;100.00;55852.00;5064279;28;19924;-78
2023/12/16 09:05:21;;;;;;;;;;;;;;;-140.72;100.00;55886.53;5054986;28;19928;-77
2023/12/16 09:07:46;;;;;;;;;;;;;;;-140.72;100.00;55854.03;5038212;28;20009;-77
2023/12/16 09:10:12;;;;;;;;;;;;;;;-140.72;100.00;55835.78;5053397;28;20298;-77
2023/12/16 09:12:37;;;;;;;;;;;;;;;-140.72;100.00;55845.94;5053453;28;19921;-77
2023/12/16 09:15:03;;;;;;;;;;;;;;;-140.72;100.00;55831.72;5035928;28;19942;-77
2023/12/16 09:17:28;;;;;;;;;;;;;;;-140.72;100.00;55839.84;5043086;28;20028;-77
2023/12/16 09:19:53;;;;;;;;;;;;;;;-140.72;100.00;55807.34;5054215;28;19920;-77
2023/12/16 09:22:19;;;;;;;;;;;;;;;-140.72;100.00;55811.41;5034084;28;19924;-77
2023/12/16 09:24:45;;;;;;;;;;;;;;;-140.72;100.00;55797.19;5061145;28;19921;-77
2023/12/16 09:27:31;;;;;;;;;;;;;;;-140.72;100.00;55768.75;5027285;28;19925;-77
2023/12/16 09:29:56;;;;;;;;;;;;;;;-140.72;100.00;55795.16;5033782;28;19999;-77
2023/12/16 09:32:30;;;;;;;;;;;;;;;-140.72;100.00;55785.00;5055592;28;19959;-77
2023/12/16 09:34:55;;;;;;;;;;;;;;;-140.72;100.00;55785.00;5050148;28;19920;-77
2023/12/16 09:37:20;;;;;;;;;;;;;;;-140.72;100.00;55795.16;5031762;28;20062;-77
2023/12/16 09:39:45;;;;;;;;;;;;;;;-140.72;100.00;55787.03;5037217;28;20390;-77
2023/12/16 09:42:11;;;;;;;;;;;;;;;-140.72;100.00;55797.19;5041402;28;20024;-77
2023/12/16 09:44:37;;;;;;;;;;;;;;;-140.72;100.00;55754.53;5034506;28;20408;-77
2023/12/16 09:47:03;;;;;;;;;;;;;;;-140.72;100.00;55782.97;5028393;28;19924;-77
2023/12/16 09:49:30;;;;;;;;;;;;;;;-140.72;100.00;55789.06;5053189;28;19928;-77
2023/12/16 09:51:55;;;;;;;;;;;;;;;-140.72;100.00;55815.47;5020874;28;19917;-77
2023/12/16 09:54:20;;;;;;;;;;;;;;;-140.72;100.00;55813.44;5057122;28;20301;-77
2023/12/16 09:56:48;;;;;;;;;;;;;;;-140.72;100.00;55766.72;5038862;28;19944;-77
2023/12/16 09:59:14;;;;;;;;;;;;;;;-140.72;100.00;55754.53;5026402;28;19920;-77
2023/12/16 10:01:40;;;;;;;;;;;;;;;-140.72;100.00;55724.06;5045245;28;20285;-77
2023/12/16 10:04:06;;;;;;;;;;;;;;;-140.72;100.00;55789.06;5034724;28;19929;-77
2023/12/16 10:06:31;;;;;;;;;;;;;;;-140.72;100.00;55764.69;5034553;28;20019;-77
2023/12/16 10:08:56;;;;;;;;;;;;;;;-140.72;100.00;55782.97;5037257;28;20016;-77
2023/12/16 10:11:22;;;;;;;;;;;;;;;-140.72;100.00;55789.06;5051831;28;19965;-77
2023/12/16 10:13:55;;;;;;;;;;;;;;;-140.72;100.00;55797.19;5040750;28;19917;-77
2023/12/16 10:16:26;;;;;;;;;;;;;;;-140.72;100.00;55793.13;5035500;28;19921;-77
2023/12/16 10:18:53;;;;;;;;;;;;;;;-140.72;100.00;55799.22;5040414;28;19979;-77
2023/12/16 10:21:25;;;;;;;;;;;;;;;-140.72;100.00;55797.19;5037600;28;19921;-77
2023/12/16 10:23:50;;;;;;;;;;;;;;;-140.72;100.00;55841.88;5027267;28;20271;-78
2023/12/16 10:26:16;;;;;;;;;;;;;;;-140.72;100.00;55888.56;5044891;28;20055;-77
2023/12/16 10:28:45;;;;;;;;;;;;;;;-140.72;100.00;55866.22;5060292;28;19929;-77
2023/12/16 10:31:10;;;;;;;;;;;;;;;-140.72;100.00;55886.53;5049591;28;19951;-76
2023/12/16 10:33:36;;;;;;;;;;;;;;;-140.72;100.00;55927.16;5041557;28;20374;-76
2023/12/16 10:36:01;;;;;;;;;;;;;;;-140.72;100.00;55949.50;5047378;28;20008;-75
2023/12/16 10:38:26;;;;;;;;;;;;;;;-140.72;100.00;55973.88;5027708;28;19916;-75
2023/12/16 10:40:52;;;;;;;;;;;;;;;-140.72;100.00;55979.97;5050692;28;19929;-77
2023/12/16 10:43:17;;;;;;;;;;;;;;;-140.72;100.00;56008.41;5058566;28;19931;-76
2023/12/16 10:45:42;;;;;;;;;;;;;;;-140.72;100.00;55998.25;5055168;28;19920;-76
2023/12/16 10:48:10;;;;;;;;;;;;;;;-140.72;100.00;56028.72;5050266;28;19916;-76
2023/12/16 10:50:35;;;;;;;;;;;;;;;-140.72;100.00;56044.97;5047094;28;19928;-76
2023/12/16 10:53:02;;;;;;;;;;;;;;;-140.72;100.00;56083.53;5053987;28;19921;-77
2023/12/16 10:55:29;;;;;;;;;;;;;;;-140.72;100.00;56136.34;5043218;28;19970;-77
2023/12/16 10:58:16;;;;;;;;;;;;;;;-140.72;100.00;56231.81;5054734;28;20268;-76
2023/12/16 11:00:44;;;;;;;;;;;;;;;-140.72;100.00;56290.72;5047667;28;19917;-77
2023/12/16 11:03:20;;;;;;;;;;;;;;;-140.72;100.00;56363.84;5059084;28;19924;-77
2023/12/16 11:05:52;;;;;;;;;;;;;;;-140.72;100.00;56404.47;5056602;28;20492;-78
2023/12/16 11:08:18;;;;;;;;;;;;;;;-140.72;100.00;56499.91;5042782;28;19917;-78
2023/12/16 11:10:43;;;;;;;;;;;;;;;-140.72;100.00;56577.09;5064561;28;20032;-77
2023/12/16 11:13:09;;;;;;;;;;;;;;;-140.72;100.00;56583.19;5057291;28;19917;-77
2023/12/16 11:15:35;;;;;;;;;;;;;;;-140.72;100.00;56650.22;5065959;28;20243;-77
2023/12/16 11:18:12;;;;;;;;;;;;;;;-140.72;100.00;56646.19;5047965;28;19928;-77
2023/12/16 11:20:39;;;;;;;;;;;;;;;-140.72;100.00;56725.41;5040725;28;19929;-77
2023/12/16 11:23:04;;;;;;;;;;;;;;;-140.72;100.00;56808.69;5047349;28;19966;-77
2023/12/16 11:25:33;;;;;;;;;;;;;;;-140.72;100.00;56794.47;5056143;28;19964;-77
2023/12/16 11:28:00;;;;;;;;;;;;;;;-140.72;100.00;56845.25;5051669;28;19920;-75
2023/12/16 11:30:27;;;;;;;;;;;;;;;-140.72;100.00;56875.72;5038500;28;19932;-76
2023/12/16 11:32:53;;;;;;;;;;;;;;;-140.72;100.00;56910.25;5044844;28;19928;-76
2023/12/16 11:35:45;;;;;;;;;;;;;;;-140.72;100.00;56961.03;5047430;28;19917;-76
2023/12/16 11:38:30;;;;;;;;;;;;;;;-140.72;100.00;56989.47;5036441;28;19920;-76
2023/12/16 11:40:58;;;;;;;;;;;;;;;-140.72;100.00;56944.78;5069291;28;19954;-76
2023/12/16 11:43:43;;;;;;;;;;;;;;;-140.72;100.00;56942.75;5049510;28;19921;-76
2023/12/16 11:46:08;;;;;;;;;;;;;;;-140.72;100.00;56914.31;5036806;28;20296;-76
2023/12/16 11:48:33;;;;;;;;;;;;;;;-140.72;100.00;56948.84;5048505;28;19958;-77
2023/12/16 11:50:59;;;;;;;;;;;;;;;-140.72;100.00;56902.13;5054742;28;19924;-76
2023/12/16 11:53:24;;;;;;;;;;;;;;;-140.72;100.00;56900.09;5047547;28;20019;-76
2023/12/16 11:55:49;;;;;;;;;;;;;;;-140.72;100.00;56896.03;5041926;28;20278;-76
2023/12/16 11:58:18;;;;;;;;;;;;;;;-140.72;100.00;56883.84;5034741;28;20342;-77
2023/12/16 12:00:43;;;;;;;;;;;;;;;-140.72;100.00;56865.56;5050010;28;20937;-78
2023/12/16 12:03:09;;;;;;;;;;;;;;;-140.72;100.00;56908.22;5048500;28;19942;-77
2023/12/16 12:05:49;;;;;;;;;;;;;;;-140.72;100.00;56879.78;5021670;28;20012;-78
2023/12/16 12:08:14;;;;;;;;;;;;;;;-140.72;100.00;56867.59;5053950;28;19921;-77
2023/12/16 12:10:40;;;;;;;;;;;;;;;-140.72;100.00;56847.28;5083578;28;19908;-77
2023/12/16 12:13:05;;;;;;;;;;;;;;;-140.72;100.00;56788.38;5052601;28;19980;-77
2023/12/16 12:15:32;;;;;;;;;;;;;;;-140.72;100.00;56788.38;5070470;28;20379;-77
2023/12/16 12:17:57;;;;;;;;;;;;;;;-140.72;100.00;56759.94;5051418;28;19966;-76
2023/12/16 12:20:22;;;;;;;;;;;;;;;-140.72;100.00;56731.50;5027694;28;20000;-76
2023/12/16 12:22:47;;;;;;;;;;;;;;;-140.72;100.00;56755.88;5048178;28;19921;-76
2023/12/16 12:25:17;;;;;;;;;;;;;;;-140.72;100.00;56749.78;5041597;28;19971;-76
2023/12/16 12:27:42;;;;;;;;;;;;;;;-140.72;100.00;56715.25;5047567;28;19924;-77
2023/12/16 12:30:07;;;;;;;;;;;;;;;-140.72;100.00;56727.44;5046740;28;19928;-76